createdAt,value
2019-01-11T00:01:16.703Z,100.00
2019-01-11T00:04:06.810Z,100.00
2019-01-11T00:06:57.462Z,100.00
2019-01-11T00:09:48.223Z,100.00
2019-01-11T00:12:38.915Z,100.00
2019-01-11T00:15:29.471Z,100.00
2019-01-11T00:18:20.205Z,100.00
2019-01-11T00:21:10.603Z,100.00
2019-01-11T00:24:01.314Z,100.00
2019-01-11T00:26:53.049Z,100.00
2019-01-11T00:29:43.767Z,100.00
2019-01-11T00:32:34.414Z,100.00
2019-01-11T00:35:25.376Z,100.00
2019-01-11T00:38:16.349Z,100.00
2019-01-11T00:41:06.957Z,100.00
2019-01-11T00:43:57.846Z,100.00
2019-01-11T00:46:48.524Z,100.00
2019-01-11T00:49:40.245Z,100.00
2019-01-11T00:52:30.920Z,100.00
2019-01-11T00:55:21.354Z,100.00
2019-01-11T00:58:12.102Z,100.00
2019-01-11T01:01:02.679Z,100.00
2019-01-11T01:03:53.058Z,100.00
2019-01-11T01:06:43.182Z,100.00
2019-01-11T01:09:33.855Z,100.00
2019-01-11T01:12:24.469Z,100.00
2019-01-11T01:15:15.242Z,100.00
2019-01-11T01:18:05.977Z,100.00
2019-01-11T01:20:56.830Z,100.00
2019-01-11T01:23:47.422Z,100.00
2019-01-11T01:26:38.139Z,100.00
2019-01-11T01:29:28.487Z,100.00
2019-01-11T01:32:19.170Z,100.00
2019-01-11T01:35:09.599Z,100.00
2019-01-11T01:38:00.460Z,100.00
2019-01-11T01:40:50.746Z,100.00
2019-01-11T01:43:41.446Z,100.00
2019-01-11T01:46:32.079Z,100.00
2019-01-11T01:49:26.507Z,100.00
2019-01-11T01:52:14.425Z,100.00
2019-01-11T01:55:05.813Z,100.00
2019-01-11T01:57:56.423Z,100.00
2019-01-11T02:00:47.225Z,100.00
2019-01-11T02:03:37.959Z,100.00
2019-01-11T02:06:28.686Z,100.00
2019-01-11T02:09:19.122Z,100.00
2019-01-11T02:12:09.541Z,100.00
2019-01-11T02:15:02.994Z,100.00
2019-01-11T02:17:54.928Z,100.00
2019-01-11T02:20:45.504Z,100.00
2019-01-11T02:23:36.000Z,100.00
2019-01-11T02:26:26.548Z,100.00
2019-01-11T02:29:17.232Z,100.00
2019-01-11T02:32:08.064Z,100.00
2019-01-11T02:34:58.821Z,100.00
2019-01-11T02:37:49.343Z,100.00
2019-01-11T02:40:40.178Z,100.00
2019-01-11T02:43:31.000Z,100.00
2019-01-11T02:46:21.712Z,100.00
2019-01-11T02:49:12.234Z,100.00
2019-01-11T02:52:02.958Z,100.00
2019-01-11T02:54:53.621Z,100.00
2019-01-11T02:57:44.505Z,100.00
2019-01-11T03:00:37.701Z,100.00
2019-01-11T03:03:28.569Z,100.00
2019-01-11T03:06:19.163Z,100.00
2019-01-11T03:09:10.236Z,100.00
2019-01-11T03:12:00.795Z,100.00
2019-01-11T03:14:51.332Z,100.00
2019-01-11T03:17:41.938Z,100.00
2019-01-11T03:20:32.654Z,100.00
2019-01-11T03:23:23.377Z,100.00
2019-01-11T03:26:13.859Z,100.00
2019-01-11T03:29:04.682Z,100.00
2019-01-11T03:31:55.300Z,100.00
2019-01-11T03:35:07.824Z,100.00
2019-01-11T03:37:58.140Z,100.00
2019-01-11T03:40:48.944Z,100.00
2019-01-11T03:43:39.495Z,100.00
2019-01-11T03:46:30.252Z,100.00
2019-01-11T03:49:20.675Z,100.00
2019-01-11T03:52:11.109Z,100.00
2019-01-11T03:55:01.867Z,100.00
2019-01-11T03:57:52.242Z,100.00
2019-01-11T04:00:42.980Z,100.00
2019-01-11T04:03:33.545Z,100.00
2019-01-11T04:06:23.869Z,100.00
2019-01-11T04:09:14.695Z,100.00
2019-01-11T04:12:05.402Z,100.00
2019-01-11T04:14:56.204Z,100.00
2019-01-11T04:17:48.209Z,100.00
2019-01-11T04:20:38.579Z,100.00
2019-01-11T04:23:29.207Z,100.00
2019-01-11T04:26:19.565Z,100.00
2019-01-11T04:29:10.227Z,100.00
2019-01-11T04:32:00.801Z,100.00
2019-01-11T04:34:51.531Z,100.00
2019-01-11T04:37:41.968Z,100.00
2019-01-11T04:40:34.234Z,100.00
2019-01-11T04:43:25.283Z,100.00
2019-01-11T04:46:16.013Z,100.00
2019-01-11T04:49:06.476Z,100.00
2019-01-11T04:51:57.006Z,100.00
2019-01-11T04:54:47.599Z,100.00
2019-01-11T04:57:41.853Z,100.00
2019-01-11T05:00:36.221Z,100.00
2019-01-11T05:03:27.206Z,100.00
2019-01-11T05:06:20.936Z,100.00
2019-01-11T05:09:11.528Z,100.00
2019-01-11T05:12:02.198Z,100.00
2019-01-11T05:14:52.486Z,100.00
2019-01-11T05:17:43.139Z,100.00
2019-01-11T05:20:33.809Z,100.00
2019-01-11T05:23:24.586Z,100.00
2019-01-11T05:26:15.296Z,100.00
2019-01-11T05:29:05.447Z,100.00
2019-01-11T05:31:55.965Z,100.00
2019-01-11T05:34:46.157Z,100.00
2019-01-11T05:37:37.665Z,100.00
2019-01-11T05:40:28.687Z,100.00
2019-01-11T05:43:20.718Z,100.00
2019-01-11T05:46:13.598Z,100.00
2019-01-11T05:49:04.074Z,100.00
2019-01-11T05:51:54.422Z,100.00
2019-01-11T05:54:45.106Z,100.00
2019-01-11T05:57:35.945Z,100.00
2019-01-11T06:00:26.666Z,100.00
2019-01-11T06:03:17.370Z,100.00
2019-01-11T06:06:07.961Z,100.00
2019-01-11T06:08:58.499Z,100.00
2019-01-11T06:11:49.070Z,100.00
2019-01-11T06:14:39.742Z,100.00
2019-01-11T06:17:30.541Z,100.00
2019-01-11T06:20:21.167Z,100.00
2019-01-11T06:23:11.948Z,100.00
2019-01-11T06:26:02.636Z,100.00
2019-01-11T06:28:53.452Z,100.00
2019-01-11T06:31:43.973Z,100.00
2019-01-11T06:34:34.842Z,100.00
2019-01-11T06:37:27.990Z,100.00
2019-01-11T06:40:18.575Z,100.00
2019-01-11T06:43:08.993Z,100.00
2019-01-11T06:45:59.623Z,100.00
2019-01-11T06:48:50.239Z,100.00
2019-01-11T06:51:40.788Z,100.00
2019-01-11T06:54:31.330Z,100.00
2019-01-11T06:57:21.962Z,100.00
2019-01-11T07:00:14.308Z,100.00
2019-01-11T07:03:04.993Z,100.00
2019-01-11T07:05:55.922Z,100.00
2019-01-11T07:08:46.533Z,100.00
2019-01-11T07:11:37.070Z,100.00
2019-01-11T07:14:27.890Z,100.00
2019-01-11T07:17:18.627Z,100.00
2019-01-11T07:20:10.476Z,100.00
2019-01-11T07:23:00.754Z,100.00
2019-01-11T07:25:51.211Z,100.00
2019-01-11T07:28:41.535Z,100.00
2019-01-11T07:31:34.349Z,100.00
2019-01-11T07:34:24.941Z,100.00
2019-01-11T07:37:15.833Z,100.00
2019-01-11T07:40:07.646Z,100.00
2019-01-11T07:42:57.860Z,100.00
2019-01-11T07:45:48.539Z,100.00
2019-01-11T07:48:39.013Z,100.00
2019-01-11T07:51:29.481Z,100.00
2019-01-11T07:54:20.259Z,100.00
2019-01-11T07:57:14.420Z,100.00
2019-01-11T08:00:06.937Z,100.00
2019-01-11T08:02:57.374Z,100.00
2019-01-11T08:05:48.037Z,100.00
2019-01-11T08:08:38.506Z,100.00
2019-01-11T08:11:29.179Z,100.00
2019-01-11T08:14:19.788Z,100.00
2019-01-11T08:17:10.424Z,100.00
2019-01-11T08:20:01.221Z,100.00
2019-01-11T08:22:51.898Z,100.00
2019-01-11T08:25:42.506Z,100.00
2019-01-11T08:28:35.997Z,100.00
2019-01-11T08:31:26.875Z,100.00
2019-01-11T08:34:18.016Z,100.00
2019-01-11T08:37:10.317Z,100.00
2019-01-11T08:40:01.391Z,100.00
2019-01-11T08:42:51.827Z,100.00
2019-01-11T08:45:42.631Z,100.00
2019-01-11T08:48:33.307Z,100.00
2019-01-11T08:51:24.237Z,100.00
2019-01-11T08:54:14.654Z,100.00
2019-01-11T08:57:05.360Z,100.00
2019-01-11T08:59:56.106Z,100.00
2019-01-11T09:02:46.907Z,100.00
2019-01-11T09:05:37.864Z,100.00
2019-01-11T09:08:28.892Z,100.00
2019-01-11T09:11:19.468Z,100.00
2019-01-11T09:14:19.879Z,100.00
2019-01-11T09:17:10.375Z,94.87
2019-01-11T09:20:01.316Z,93.74
2019-01-11T09:22:52.271Z,93.77
2019-01-11T09:25:43.364Z,84.20
2019-01-11T09:28:34.162Z,80.48
2019-01-11T09:31:24.906Z,75.69
2019-01-11T09:34:15.994Z,72.82
2019-01-11T09:37:07.062Z,69.01
2019-01-11T09:39:57.376Z,64.75
2019-01-11T09:42:48.058Z,62.62
2019-01-11T09:45:39.165Z,63.70
2019-01-11T09:48:30.416Z,65.51
2019-01-11T09:51:21.117Z,60.32
2019-01-11T09:54:12.177Z,61.70
2019-01-11T09:57:03.033Z,59.08
2019-01-11T09:59:53.911Z,61.09
2019-01-11T10:02:49.560Z,61.41
2019-01-11T10:05:40.695Z,59.15
2019-01-11T10:08:31.799Z,59.13
2019-01-11T10:11:22.953Z,62.55
2019-01-11T10:14:13.765Z,68.78
2019-01-11T10:17:04.473Z,83.89
2019-01-11T10:19:55.638Z,87.14
2019-01-11T10:22:46.599Z,98.64
2019-01-11T10:25:39.804Z,97.55
2019-01-11T10:28:33.171Z,97.12
2019-01-11T10:31:23.678Z,100.00
2019-01-11T10:34:14.501Z,100.00
2019-01-11T10:37:05.309Z,100.00
2019-01-11T10:39:56.187Z,100.00
2019-01-11T10:42:46.871Z,100.00
2019-01-11T10:45:37.886Z,100.00
2019-01-11T10:48:28.775Z,100.00
2019-01-11T10:51:19.605Z,100.00
2019-01-11T10:54:16.947Z,100.00
2019-01-11T10:57:07.727Z,97.21
2019-01-11T10:59:58.670Z,93.28
2019-01-11T11:02:49.418Z,96.79
2019-01-11T11:05:41.235Z,100.00
2019-01-11T11:08:32.052Z,98.83
2019-01-11T11:11:22.520Z,96.63
2019-01-11T11:14:13.193Z,86.31
2019-01-11T11:17:03.827Z,80.05
2019-01-11T11:19:55.064Z,79.38
2019-01-11T11:22:46.168Z,72.52
2019-01-11T11:25:36.958Z,78.74
2019-01-11T11:28:27.803Z,86.25
2019-01-11T11:31:18.186Z,90.21
2019-01-11T11:34:08.585Z,83.20
2019-01-11T11:37:00.872Z,81.72
2019-01-11T11:39:52.086Z,68.62
2019-01-11T11:42:42.928Z,59.53
2019-01-11T11:45:33.850Z,59.75
2019-01-11T11:48:24.771Z,58.93
2019-01-11T11:51:15.348Z,54.08
2019-01-11T11:54:06.237Z,53.08
2019-01-11T11:56:56.924Z,55.65
2019-01-11T11:59:48.117Z,59.52
2019-01-11T12:02:38.588Z,58.88
2019-01-11T12:05:30.497Z,62.31
2019-01-11T12:08:21.218Z,67.12
2019-01-11T12:11:12.033Z,67.94
2019-01-11T12:14:03.034Z,64.69
2019-01-11T12:16:53.867Z,54.79
2019-01-11T12:19:44.818Z,57.76
2019-01-11T12:22:35.856Z,57.27
2019-01-11T12:25:26.492Z,59.12
2019-01-11T12:28:18.307Z,55.87
2019-01-11T12:31:13.539Z,66.16
2019-01-11T12:34:08.422Z,69.80
2019-01-11T12:37:03.209Z,68.55
2019-01-11T12:39:57.869Z,65.71
2019-01-11T12:42:53.697Z,70.49
2019-01-11T12:45:49.249Z,73.50
2019-01-11T12:48:45.103Z,77.99
2019-01-11T12:51:39.715Z,78.59
2019-01-11T12:54:34.381Z,81.04
2019-01-11T12:57:28.413Z,66.98
2019-01-11T13:00:19.491Z,69.55
2019-01-11T13:03:10.693Z,59.58
2019-01-11T13:06:01.330Z,55.02
2019-01-11T13:08:52.096Z,52.06
2019-01-11T13:11:42.690Z,52.03
2019-01-11T13:14:33.405Z,52.42
2019-01-11T13:17:24.328Z,52.79
2019-01-11T13:20:18.175Z,52.88
2019-01-11T13:23:09.506Z,51.29
2019-01-11T13:26:00.434Z,51.68
2019-01-11T13:28:51.146Z,50.57
2019-01-11T13:31:41.761Z,50.49
2019-01-11T13:34:32.917Z,51.92
2019-01-11T13:37:24.026Z,52.99
2019-01-11T13:40:18.539Z,54.37
2019-01-11T13:43:10.552Z,53.97
2019-01-11T13:46:00.936Z,55.60
2019-01-11T13:48:52.024Z,56.40
2019-01-11T13:51:43.101Z,57.66
2019-01-11T13:54:34.068Z,57.00
2019-01-11T13:57:25.104Z,57.84
2019-01-11T14:00:15.859Z,56.92
2019-01-11T14:03:06.586Z,56.44
2019-01-11T14:05:57.413Z,55.65
2019-01-11T14:08:48.229Z,53.80
2019-01-11T14:11:39.181Z,57.69
2019-01-11T14:14:30.158Z,57.58
2019-01-11T14:17:20.976Z,58.68
2019-01-11T14:20:11.212Z,61.41
2019-01-11T14:23:01.695Z,60.57
2019-01-11T14:25:53.243Z,62.09
2019-01-11T14:28:43.982Z,63.95
2019-01-11T14:31:34.596Z,66.47
2019-01-11T14:34:25.390Z,65.37
2019-01-11T14:37:16.308Z,65.60
2019-01-11T14:40:08.862Z,65.21
2019-01-11T14:42:59.167Z,66.89
2019-01-11T14:45:49.739Z,67.87
2019-01-11T14:48:39.979Z,69.28
2019-01-11T14:51:30.513Z,66.77
2019-01-11T14:54:20.957Z,69.01
2019-01-11T14:57:11.368Z,68.22
2019-01-11T15:00:01.923Z,66.82
2019-01-11T15:02:52.606Z,66.07
2019-01-11T15:05:42.998Z,65.33
2019-01-11T15:08:33.926Z,64.18
2019-01-11T15:11:27.411Z,63.46
2019-01-11T15:14:17.952Z,62.48
2019-01-11T15:17:08.804Z,63.13
2019-01-11T15:19:59.784Z,61.73
2019-01-11T15:22:50.725Z,58.41
2019-01-11T15:25:41.506Z,58.79
2019-01-11T15:28:32.138Z,58.86
2019-01-11T15:31:22.506Z,59.54
2019-01-11T15:34:12.828Z,60.15
2019-01-11T15:37:03.403Z,60.84
2019-01-11T15:39:53.903Z,63.07
2019-01-11T15:42:44.601Z,61.75
2019-01-11T15:45:35.338Z,62.44
2019-01-11T15:48:47.260Z,62.70
2019-01-11T15:51:37.806Z,62.13
2019-01-11T15:54:28.559Z,63.46
2019-01-11T15:57:19.199Z,64.48
2019-01-11T16:00:10.212Z,65.30
2019-01-11T16:03:00.548Z,63.14
2019-01-11T16:06:10.598Z,64.90
2019-01-11T16:10:01.569Z,66.56
2019-01-11T16:13:30.661Z,67.52
2019-01-11T16:16:45.238Z,69.71
2019-01-11T16:19:35.668Z,70.26
2019-01-11T16:22:25.991Z,72.96
2019-01-11T16:25:16.840Z,71.58
2019-01-11T16:28:07.252Z,72.47
2019-01-11T16:30:57.864Z,72.56
2019-01-11T16:33:48.152Z,73.46
2019-01-11T16:36:38.754Z,74.05
2019-01-11T16:39:29.465Z,70.41
2019-01-11T16:42:19.848Z,70.31
2019-01-11T16:45:12.457Z,70.48
2019-01-11T16:48:03.911Z,71.02
2019-01-11T16:50:54.754Z,71.29
2019-01-11T16:53:45.579Z,74.36
2019-01-11T16:56:36.498Z,74.22
2019-01-11T16:59:27.404Z,72.76
2019-01-11T17:02:18.125Z,71.87
2019-01-11T17:05:08.695Z,71.77
2019-01-11T17:07:59.411Z,71.24
2019-01-11T17:10:49.796Z,69.79
2019-01-11T17:13:40.719Z,70.97
2019-01-11T17:16:31.658Z,69.48
2019-01-11T17:19:22.342Z,69.65
2019-01-11T17:22:12.890Z,68.40
2019-01-11T17:25:03.474Z,67.65
2019-01-11T17:27:54.254Z,66.91
2019-01-11T17:30:44.603Z,67.51
2019-01-11T17:33:37.125Z,67.00
2019-01-11T17:36:27.744Z,67.25
2019-01-11T17:39:18.562Z,66.25
2019-01-11T17:42:09.555Z,67.00
2019-01-11T17:45:00.282Z,66.38
2019-01-11T17:47:50.866Z,65.04
2019-01-11T17:50:41.394Z,66.26
2019-01-11T17:53:31.798Z,64.66
2019-01-11T17:56:22.475Z,65.66
2019-01-11T17:59:12.972Z,65.75
2019-01-11T18:02:03.454Z,63.52
2019-01-11T18:04:54.034Z,62.99
2019-01-11T18:07:44.779Z,62.51
2019-01-11T18:10:35.245Z,62.08
2019-01-11T18:13:25.841Z,62.23
2019-01-11T18:16:16.784Z,62.27
2019-01-11T18:19:07.829Z,63.05
2019-01-11T18:21:58.606Z,62.25
2019-01-11T18:24:49.313Z,63.13
2019-01-11T18:27:39.945Z,63.67
2019-01-11T18:30:30.689Z,66.93
2019-01-11T18:33:21.210Z,68.61
2019-01-11T18:36:12.059Z,69.69
2019-01-11T18:39:02.629Z,70.39
2019-01-11T18:41:54.241Z,69.39
2019-01-11T18:44:46.091Z,66.34
2019-01-11T18:47:36.884Z,65.75
2019-01-11T18:50:28.483Z,64.14
2019-01-11T18:53:19.363Z,63.64
2019-01-11T18:56:09.988Z,64.09
2019-01-11T18:59:00.536Z,63.93
2019-01-11T19:01:51.155Z,63.86
2019-01-11T19:04:42.421Z,62.68
2019-01-11T19:07:33.244Z,63.44
2019-01-11T19:10:23.819Z,63.06
2019-01-11T19:13:14.509Z,64.22
2019-01-11T19:16:05.004Z,62.42
2019-01-11T19:18:55.399Z,63.35
2019-01-11T19:21:45.860Z,64.86
2019-01-11T19:24:36.760Z,66.79
2019-01-11T19:27:27.432Z,68.70
2019-01-11T19:30:25.873Z,68.87
2019-01-11T19:33:16.496Z,72.41
2019-01-11T19:36:07.256Z,75.23
2019-01-11T19:38:58.145Z,78.01
2019-01-11T19:41:48.655Z,80.83
2019-01-11T19:44:39.130Z,82.51
2019-01-11T19:47:29.599Z,83.92
2019-01-11T19:50:22.166Z,84.21
2019-01-11T19:53:12.668Z,85.69
2019-01-11T19:56:03.508Z,84.90
2019-01-11T19:58:54.203Z,85.78
2019-01-11T20:01:45.100Z,86.80
2019-01-11T20:04:36.093Z,86.27
2019-01-11T20:07:26.989Z,86.52
2019-01-11T20:10:20.947Z,88.34
2019-01-11T20:13:12.059Z,86.95
2019-01-11T20:16:02.699Z,87.84
2019-01-11T20:18:53.111Z,88.51
2019-01-11T20:21:43.364Z,89.11
2019-01-11T20:24:34.309Z,89.96
2019-01-11T20:27:24.694Z,90.34
2019-01-11T20:30:17.740Z,89.65
2019-01-11T20:33:08.274Z,90.06
2019-01-11T20:35:58.984Z,89.66
2019-01-11T20:38:49.608Z,88.97
2019-01-11T20:41:40.164Z,90.38
2019-01-11T20:44:30.543Z,90.52
2019-01-11T20:47:20.964Z,91.04
2019-01-11T20:50:13.802Z,90.60
2019-01-11T20:53:04.415Z,91.70
2019-01-11T20:55:54.942Z,92.41
2019-01-11T20:58:45.793Z,94.36
2019-01-11T21:01:36.404Z,93.91
2019-01-11T21:04:27.138Z,95.34
2019-01-11T21:07:17.804Z,95.59
2019-01-11T21:10:08.657Z,98.33
2019-01-11T21:12:59.407Z,98.10
2019-01-11T21:15:50.051Z,98.19
2019-01-11T21:18:40.640Z,100.00
2019-01-11T21:21:31.296Z,100.00
2019-01-11T21:24:21.720Z,99.14
2019-01-11T21:27:16.177Z,100.00
2019-01-11T21:30:10.881Z,100.00
2019-01-11T21:33:01.894Z,100.00
2019-01-11T21:35:52.317Z,100.00
2019-01-11T21:38:42.945Z,100.00
2019-01-11T21:41:33.484Z,100.00
2019-01-11T21:44:24.165Z,100.00
2019-01-11T21:47:14.672Z,100.00
2019-01-11T21:50:09.629Z,100.00
2019-01-11T21:53:00.066Z,100.00
2019-01-11T21:55:50.461Z,100.00
2019-01-11T21:58:41.383Z,100.00
2019-01-11T22:01:32.491Z,100.00
2019-01-11T22:04:23.253Z,100.00
2019-01-11T22:07:14.357Z,100.00
2019-01-11T22:10:05.904Z,100.00
2019-01-11T22:12:56.724Z,100.00
2019-01-11T22:15:47.254Z,100.00
2019-01-11T22:18:37.807Z,100.00
2019-01-11T22:21:28.337Z,100.00
2019-01-11T22:24:19.324Z,100.00
2019-01-11T22:27:09.775Z,100.00
2019-01-11T22:30:00.249Z,100.00
2019-01-11T22:32:51.085Z,100.00
2019-01-11T22:35:41.543Z,100.00
2019-01-11T22:38:31.761Z,100.00
2019-01-11T22:41:22.497Z,100.00
2019-01-11T22:44:13.309Z,100.00
2019-01-11T22:47:04.156Z,100.00
2019-01-11T22:49:54.603Z,100.00
2019-01-11T22:52:45.076Z,100.00
2019-01-11T22:55:35.492Z,100.00
2019-01-11T22:58:25.952Z,100.00
2019-01-11T23:02:00.006Z,100.00
2019-01-11T23:04:50.710Z,100.00
2019-01-11T23:07:57.044Z,100.00
2019-01-11T23:11:27.084Z,100.00
2019-01-11T23:14:17.671Z,100.00
2019-01-11T23:17:33.451Z,100.00
2019-01-11T23:20:25.459Z,100.00
2019-01-11T23:23:16.256Z,100.00
2019-01-11T23:26:06.948Z,100.00
2019-01-11T23:28:57.716Z,100.00
2019-01-11T23:31:48.332Z,100.00
2019-01-11T23:34:39.167Z,100.00
2019-01-11T23:37:29.526Z,100.00
2019-01-11T23:40:21.119Z,100.00
2019-01-11T23:43:12.761Z,100.00
2019-01-11T23:46:11.361Z,100.00
2019-01-11T23:49:02.308Z,100.00
2019-01-11T23:51:52.641Z,100.00
2019-01-11T23:54:43.423Z,100.00
2019-01-11T23:57:34.094Z,100.00
